THA8886 VTBD-ESSA
Flight info
| Callsign | THA8886 |
|---|---|
| Flight time | N/A |
| Altitude | 34000 |
| Route | TARED1D TARED G463 BETNO P646 PTN N895 BBS W50 LAPAN M875 DI N644 LEMOD A909 RODAR N644 TETRO M10 SARPI DCT KARDE DCT SIN DCT ODERO DCT GEMTO DCT PENOR DCT NILUG |
| Aircraft | A359/H-SDE2E3GHIJ3J4J5LM1ORWXY/LB1D1 |
Departure
| Time | 2026-04-30 18:45 |
|---|---|
| Airport | Don Mueang International Airport (VTBD) |
Arrival
| Time | N/A |
|---|---|
| Airport | Stockholm-Arlanda Airport (ESSA) |
| Time | Latitude | Longitude | Altitude | Speed | Heading |
|---|---|---|---|---|---|
| 2026-04-30 18:29 | 13.92370 | 100.61843 | 21 ft | 0 kts | 216° |
| 2026-04-30 18:35 | 13.92369 | 100.61843 | 21 ft | 1 kts | 216° |
| 2026-04-30 18:35 | 13.92352 | 100.61831 | 21 ft | 7 kts | 216° |
| 2026-04-30 18:35 | 13.92319 | 100.61765 | 20 ft | 15 kts | 261° |
| 2026-04-30 18:36 | 13.92243 | 100.61610 | 20 ft | 13 kts | 209° |
| 2026-04-30 18:36 | 13.92161 | 100.61564 | 20 ft | 14 kts | 208° |
| 2026-04-30 18:36 | 13.91971 | 100.61454 | 20 ft | 18 kts | 210° |
| 2026-04-30 18:37 | 13.91862 | 100.61389 | 21 ft | 19 kts | 210° |
| 2026-04-30 18:37 | 13.91767 | 100.61323 | 21 ft | 9 kts | 240° |
| 2026-04-30 18:37 | 13.91770 | 100.61284 | 40 ft | 7 kts | 288° |
| 2026-04-30 18:37 | 13.91788 | 100.61202 | 21 ft | 15 kts | 258° |
| 2026-04-30 18:38 | 13.91722 | 100.61142 | 21 ft | 11 kts | 209° |
| 2026-04-30 18:38 | 13.91654 | 100.61103 | 21 ft | 12 kts | 209° |
| 2026-04-30 18:38 | 13.91572 | 100.61057 | 21 ft | 15 kts | 208° |
| 2026-04-30 18:38 | 13.91473 | 100.61002 | 20 ft | 18 kts | 208° |
| 2026-04-30 18:39 | 13.91354 | 100.60937 | 20 ft | 20 kts | 208° |
| 2026-04-30 18:39 | 13.91224 | 100.60866 | 21 ft | 22 kts | 208° |
| 2026-04-30 18:39 | 13.91096 | 100.60795 | 21 ft | 19 kts | 208° |
| 2026-04-30 18:39 | 13.90990 | 100.60736 | 22 ft | 16 kts | 208° |
| 2026-04-30 18:40 | 13.90901 | 100.60686 | 22 ft | 14 kts | 209° |
| 2026-04-30 18:40 | 13.90801 | 100.60630 | 23 ft | 18 kts | 208° |
| 2026-04-30 18:40 | 13.90678 | 100.60563 | 26 ft | 22 kts | 208° |
| 2026-04-30 18:40 | 13.90531 | 100.60480 | 22 ft | 26 kts | 208° |
| 2026-04-30 18:41 | 13.90367 | 100.60389 | 24 ft | 26 kts | 208° |
| 2026-04-30 18:41 | 13.90216 | 100.60305 | 21 ft | 24 kts | 208° |
| 2026-04-30 18:41 | 13.90122 | 100.60184 | 21 ft | 20 kts | 238° |
| 2026-04-30 18:41 | 13.90016 | 100.60118 | 21 ft | 14 kts | 182° |
| 2026-04-30 18:42 | 13.89974 | 100.60154 | 21 ft | 5 kts | 99° |
| 2026-04-30 18:42 | 13.90025 | 100.60200 | 21 ft | 4 kts | 28° |
| 2026-04-30 18:42 | 13.90136 | 100.60262 | 21 ft | 46 kts | 28° |
| 2026-04-30 18:45 | 14.01063 | 100.58398 | 2703 ft | 265 kts | 309° |
| 2026-04-30 18:45 | 14.02310 | 100.56957 | 3133 ft | 272 kts | 311° |
| 2026-04-30 18:45 | 14.03589 | 100.55511 | 3669 ft | 274 kts | 311° |